Time;durP1;ratioP1;P1;durP2;ratioP2;P2;SDS_P1;SDS_P2;PMS_P1;PMS_P2;Temp;Humidity;BMP_temperature;BMP_pressure;BME280_temperature;BME280_humidity;BME280_pressure;Samples;Min_cycle;Max_cycle;Signal;HPM_P1;HPM_P2
2024/02/22 00:00:49;;;;;;;1.17;0.68;;;17.30;90.30;;;;;;5072390;28;20509;-37
2024/02/22 00:03:14;;;;;;;1.10;0.70;;;17.30;90.40;;;;;;5072906;28;20390;-35
2024/02/22 00:05:40;;;;;;;1.50;0.75;;;17.30;90.40;;;;;;5072208;28;20482;-38
2024/02/22 00:08:06;;;;;;;1.63;1.00;;;17.30;90.40;;;;;;5071978;28;20033;-36
2024/02/22 00:10:33;;;;;;;1.25;0.70;;;17.30;90.40;;;;;;5071800;28;20498;-37
2024/02/22 00:12:59;;;;;;;1.35;0.90;;;17.30;90.40;;;;;;5071544;28;20017;-35
2024/02/22 00:15:25;;;;;;;1.13;0.60;;;17.30;90.50;;;;;;5071355;28;20501;-35
2024/02/22 00:17:52;;;;;;;1.40;0.90;;;17.20;90.50;;;;;;5072124;28;20028;-35
2024/02/22 00:20:18;;;;;;;1.48;0.70;;;17.20;90.50;;;;;;5072595;28;20027;-35
2024/02/22 00:22:45;;;;;;;1.60;0.80;;;17.20;90.50;;;;;;5071656;28;20382;-35
2024/02/22 00:25:11;;;;;;;1.88;1.10;;;17.30;90.60;;;;;;5071373;28;20052;-34
2024/02/22 00:27:38;;;;;;;1.73;0.82;;;17.20;90.50;;;;;;5072068;28;20071;-34
2024/02/22 00:30:05;;;;;;;1.10;0.80;;;17.30;90.50;;;;;;5071884;28;20017;-34
2024/02/22 00:32:34;;;;;;;0.98;0.77;;;17.20;90.50;;;;;;5071720;28;20037;-34
2024/02/22 00:35:00;;;;;;;1.42;0.68;;;17.20;90.50;;;;;;5071560;28;20028;-34
2024/02/22 00:37:25;;;;;;;1.17;0.68;;;17.20;90.50;;;;;;5071632;28;20654;-35
2024/02/22 00:39:51;;;;;;;1.88;0.80;;;17.20;90.50;;;;;;5071596;28;20028;-35
2024/02/22 00:42:17;;;;;;;2.08;1.00;;;17.20;90.50;;;;;;5072161;28;20054;-34
2024/02/22 00:44:43;;;;;;;1.98;0.90;;;17.20;90.50;;;;;;5072404;28;20037;-34
2024/02/22 00:47:09;;;;;;;1.33;0.80;;;17.20;90.50;;;;;;5072206;28;20096;-34
2024/02/22 00:49:34;;;;;;;1.13;0.75;;;17.20;90.50;;;;;;5071651;28;20382;-34
2024/02/22 00:52:00;;;;;;;1.25;0.77;;;17.20;90.50;;;;;;5072006;28;20021;-34
2024/02/22 00:54:25;;;;;;;1.10;0.80;;;17.20;90.50;;;;;;5071446;28;20483;-35
2024/02/22 00:56:51;;;;;;;1.77;0.93;;;17.20;90.50;;;;;;5071239;28;20110;-34
2024/02/22 00:59:17;;;;;;;0.85;0.60;;;17.20;90.50;;;;;;5071110;28;20059;-34
2024/02/22 01:01:43;;;;;;;1.35;0.70;;;17.20;90.50;;;;;;5071319;28;20146;-35
2024/02/22 01:04:10;;;;;;;0.93;0.70;;;17.20;90.60;;;;;;5071058;28;20025;-34
2024/02/22 01:06:35;;;;;;;1.85;0.70;;;17.20;90.60;;;;;;5071162;28;20032;-37
2024/02/22 01:09:03;;;;;;;1.85;0.90;;;17.20;90.60;;;;;;5070806;28;20532;-34
2024/02/22 01:11:29;;;;;;;1.42;0.90;;;17.20;90.60;;;;;;5071145;28;20470;-34
2024/02/22 01:13:54;;;;;;;1.13;0.80;;;17.20;90.60;;;;;;5071033;28;20119;-38
2024/02/22 01:16:20;;;;;;;1.15;0.88;;;17.20;90.60;;;;;;5071029;28;20103;-35
2024/02/22 01:18:46;;;;;;;1.10;0.90;;;17.20;90.60;;;;;;5070973;28;20116;-36
2024/02/22 01:21:12;;;;;;;1.27;0.80;;;17.20;90.70;;;;;;5071207;28;20194;-37
2024/02/22 01:23:38;;;;;;;1.05;0.80;;;17.20;90.70;;;;;;5070775;28;20021;-36
2024/02/22 01:26:03;;;;;;;1.80;0.90;;;17.20;90.70;;;;;;5071102;28;20033;-36
2024/02/22 01:28:29;;;;;;;1.15;0.73;;;17.10;90.70;;;;;;5070726;28;20054;-36
2024/02/22 01:30:54;;;;;;;1.17;0.80;;;17.10;90.60;;;;;;5070670;28;20025;-35
2024/02/22 01:33:20;;;;;;;1.17;0.93;;;17.10;90.70;;;;;;5070879;28;20533;-35
2024/02/22 01:35:46;;;;;;;0.85;0.60;;;17.20;90.70;;;;;;5070868;28;20025;-35
2024/02/22 01:38:11;;;;;;;0.98;0.70;;;17.10;90.80;;;;;;5070832;28;20389;-35
2024/02/22 01:40:37;;;;;;;1.58;0.88;;;17.10;90.80;;;;;;5070843;28;20029;-35
2024/02/22 01:43:03;;;;;;;1.80;0.90;;;17.10;90.80;;;;;;5070911;28;20033;-35
2024/02/22 01:45:28;;;;;;;1.50;0.90;;;17.20;91.10;;;;;;5070686;28;20108;-34
2024/02/22 01:47:54;;;;;;;1.40;0.85;;;17.10;90.80;;;;;;5070532;28;20402;-34
2024/02/22 01:50:21;;;;;;;1.13;0.70;;;17.10;91.10;;;;;;5070434;28;20028;-34
2024/02/22 01:52:47;;;;;;;0.63;0.40;;;17.10;90.80;;;;;;5070852;28;20021;-35
2024/02/22 01:55:14;;;;;;;1.20;0.80;;;17.10;90.80;;;;;;5070641;28;20024;-35
2024/02/22 01:57:40;;;;;;;1.92;0.73;;;17.10;90.80;;;;;;5070572;28;20021;-35
2024/02/22 02:00:11;;;;;;;1.33;0.90;;;17.20;90.80;;;;;;5070407;28;20466;-35
2024/02/22 02:02:38;;;;;;;1.10;0.73;;;17.10;90.80;;;;;;5070676;28;20067;-35
2024/02/22 02:05:06;;;;;;;1.20;0.82;;;17.10;90.80;;;;;;5071140;28;20111;-35
2024/02/22 02:07:32;;;;;;;1.10;0.70;;;17.10;90.80;;;;;;5070359;28;20029;-35
2024/02/22 02:09:58;;;;;;;1.20;0.90;;;17.10;90.80;;;;;;5070509;28;20032;-35
2024/02/22 02:12:24;;;;;;;0.75;0.68;;;17.10;90.90;;;;;;5070509;28;20032;-35
2024/02/22 02:14:50;;;;;;;1.20;0.85;;;17.10;90.90;;;;;;5070530;28;20021;-35
2024/02/22 02:17:16;;;;;;;1.10;0.70;;;17.10;90.90;;;;;;5070223;28;20146;-35
2024/02/22 02:19:42;;;;;;;1.40;0.77;;;17.10;90.90;;;;;;5070155;28;20408;-36
2024/02/22 02:22:31;;;;;;;2.05;0.70;;;17.10;90.90;;;;;;5070647;28;20020;-35
2024/02/22 02:25:03;;;;;;;0.90;0.80;;;17.10;90.90;;;;;;5070301;28;20547;-36
2024/02/22 02:27:30;;;;;;;1.52;0.85;;;17.10;90.90;;;;;;5068789;28;20036;-35
2024/02/22 02:29:56;;;;;;;0.68;0.60;;;17.10;90.90;;;;;;5070170;28;20052;-35
2024/02/22 02:32:21;;;;;;;1.05;0.75;;;17.10;91.00;;;;;;5070321;28;20105;-36
2024/02/22 02:34:47;;;;;;;1.63;0.90;;;17.10;91.00;;;;;;5070694;28;20028;-34
2024/02/22 02:37:13;;;;;;;1.02;0.60;;;17.10;91.00;;;;;;5073600;28;20025;-34
2024/02/22 02:39:39;;;;;;;1.40;0.90;;;17.10;91.00;;;;;;5073714;28;20030;-35
2024/02/22 02:42:05;;;;;;;1.30;0.77;;;17.10;91.10;;;;;;5073917;28;20025;-36
2024/02/22 02:44:31;;;;;;;1.02;0.80;;;17.10;91.10;;;;;;5073922;28;20017;-36
2024/02/22 02:46:57;;;;;;;1.00;0.70;;;17.10;91.10;;;;;;5073501;28;20481;-36
2024/02/22 02:49:22;;;;;;;1.52;0.77;;;17.10;91.10;;;;;;5073461;28;20035;-36
2024/02/22 02:51:48;;;;;;;1.45;0.90;;;17.10;91.10;;;;;;5073688;28;20056;-35
2024/02/22 02:54:14;;;;;;;1.23;0.77;;;17.10;91.10;;;;;;5073722;28;20250;-35
2024/02/22 02:56:40;;;;;;;0.98;0.60;;;17.10;91.20;;;;;;5073509;28;20032;-36
2024/02/22 02:59:05;;;;;;;1.20;0.70;;;17.10;91.20;;;;;;5073292;28;20020;-37
2024/02/22 03:01:31;;;;;;;1.02;0.63;;;17.10;91.20;;;;;;5073952;28;20037;-37
2024/02/22 03:03:57;;;;;;;1.63;0.80;;;17.10;91.20;;;;;;5073974;28;20082;-35
2024/02/22 03:06:23;;;;;;;1.58;0.60;;;17.10;91.20;;;;;;5073166;28;20567;-37
2024/02/22 03:08:49;;;;;;;1.35;0.60;;;17.10;91.20;;;;;;5072990;28;20168;-36
2024/02/22 03:11:14;;;;;;;1.00;0.70;;;17.10;91.20;;;;;;5073338;28;20474;-36
2024/02/22 03:13:40;;;;;;;0.90;0.60;;;17.10;91.30;;;;;;5073400;28;20108;-35
2024/02/22 03:16:07;;;;;;;2.15;0.60;;;17.10;91.30;;;;;;5073169;28;20024;-36
2024/02/22 03:18:33;;;;;;;1.17;0.70;;;17.10;91.30;;;;;;5073079;28;20024;-36
2024/02/22 03:21:00;;;;;;;2.10;0.77;;;17.10;91.30;;;;;;5072822;28;20117;-35
2024/02/22 03:23:27;;;;;;;1.05;0.70;;;17.10;91.30;;;;;;5072881;28;20043;-35
2024/02/22 03:25:52;;;;;;;1.30;0.70;;;17.10;91.30;;;;;;5071698;28;20032;-35
2024/02/22 03:28:19;;;;;;;0.93;0.60;;;17.10;91.30;;;;;;5071390;28;20063;-35
2024/02/22 03:30:46;;;;;;;1.02;0.40;;;17.10;91.30;;;;;;5072983;28;20035;-35
2024/02/22 03:33:13;;;;;;;1.23;0.50;;;17.10;91.30;;;;;;5074081;28;20020;-35
2024/02/22 03:35:39;;;;;;;0.85;0.60;;;17.10;91.30;;;;;;5078617;28;20047;-35
2024/02/22 03:38:05;;;;;;;1.63;0.65;;;17.10;91.30;;;;;;5077177;28;20040;-36
2024/02/22 03:40:31;;;;;;;0.95;0.60;;;17.10;91.40;;;;;;5072687;28;20033;-34
2024/02/22 03:42:59;;;;;;;0.93;0.57;;;17.00;91.30;;;;;;5072632;28;20082;-34
2024/02/22 03:45:25;;;;;;;0.90;0.60;;;17.10;91.40;;;;;;5072302;28;20036;-34
2024/02/22 03:47:51;;;;;;;1.30;0.70;;;17.00;91.40;;;;;;5072303;28;20077;-34
2024/02/22 03:50:16;;;;;;;0.85;0.60;;;17.00;91.40;;;;;;5072747;28;20021;-34
2024/02/22 03:52:42;;;;;;;0.85;0.52;;;17.10;91.40;;;;;;5072404;28;20502;-34
2024/02/22 03:55:11;;;;;;;0.90;0.57;;;17.00;91.40;;;;;;5072304;28;20031;-36
2024/02/22 03:57:37;;;;;;;1.08;0.57;;;17.00;91.40;;;;;;5072252;28;20023;-34
2024/02/22 04:00:07;;;;;;;1.58;0.80;;;17.00;91.40;;;;;;5071915;28;20386;-34
2024/02/22 04:02:32;;;;;;;1.02;0.40;;;17.00;91.50;;;;;;5072268;28;20063;-34
2024/02/22 04:05:00;;;;;;;0.60;0.50;;;17.00;91.50;;;;;;5072109;28;20056;-36
2024/02/22 04:07:26;;;;;;;0.95;0.43;;;17.00;91.50;;;;;;5070677;28;20029;-34
2024/02/22 04:09:52;;;;;;;1.77;0.65;;;17.10;91.60;;;;;;5071855;28;20391;-34
2024/02/22 04:12:19;;;;;;;3.17;0.50;;;17.00;91.60;;;;;;5072014;28;20025;-36
2024/02/22 04:14:45;;;;;;;1.00;0.60;;;17.00;91.60;;;;;;5071869;28;20029;-35
2024/02/22 04:17:10;;;;;;;1.08;0.60;;;17.00;91.60;;;;;;5071787;28;20065;-34
2024/02/22 04:19:36;;;;;;;0.77;0.60;;;17.00;91.60;;;;;;5071637;28;20054;-34
2024/02/22 04:22:02;;;;;;;1.05;0.50;;;17.00;91.60;;;;;;5071773;28;20028;-35
2024/02/22 04:24:28;;;;;;;0.70;0.50;;;17.00;91.60;;;;;;5071949;28;20048;-34
2024/02/22 04:26:57;;;;;;;1.05;0.50;;;17.00;91.60;;;;;;5071346;28;20040;-34
2024/02/22 04:29:22;;;;;;;1.00;0.60;;;17.00;91.60;;;;;;5071348;28;20032;-34
2024/02/22 04:31:49;;;;;;;1.00;0.60;;;17.00;91.60;;;;;;5071791;28;20410;-34
2024/02/22 04:34:14;;;;;;;1.33;0.63;;;17.00;91.60;;;;;;5070456;28;20148;-34
2024/02/22 04:36:41;;;;;;;2.47;0.45;;;17.00;91.60;;;;;;5071173;28;20143;-34
2024/02/22 04:39:10;;;;;;;1.00;0.60;;;17.00;91.60;;;;;;5071408;28;20203;-34
2024/02/22 04:41:36;;;;;;;0.47;0.40;;;17.00;91.60;;;;;;5071504;28;20098;-34
2024/02/22 04:44:02;;;;;;;0.70;0.50;;;17.00;91.70;;;;;;5071444;28;20031;-34
2024/02/22 04:46:28;;;;;;;1.20;0.43;;;17.00;91.60;;;;;;5072443;28;20029;-34
2024/02/22 04:48:54;;;;;;;0.40;0.30;;;17.00;91.70;;;;;;5072563;28;20139;-34
2024/02/22 04:51:19;;;;;;;0.60;0.60;;;17.00;91.70;;;;;;5071814;28;20020;-34
2024/02/22 04:53:45;;;;;;;0.90;0.50;;;17.00;91.70;;;;;;5071806;28;20025;-34
2024/02/22 04:56:13;;;;;;;1.10;0.60;;;17.00;91.70;;;;;;5071132;28;20028;-34
2024/02/22 04:58:38;;;;;;;0.60;0.50;;;17.00;91.70;;;;;;5070686;28;20039;-35
2024/02/22 05:01:04;;;;;;;0.73;0.60;;;17.00;91.70;;;;;;5071302;28;20520;-35
2024/02/22 05:03:30;;;;;;;1.08;0.70;;;17.00;91.70;;;;;;5071230;28;20073;-34
2024/02/22 05:05:56;;;;;;;1.35;0.70;;;17.00;92.10;;;;;;5071078;28;20478;-34
2024/02/22 05:08:25;;;;;;;0.90;0.60;;;17.00;91.70;;;;;;5070892;28;20024;-34
2024/02/22 05:10:50;;;;;;;1.05;0.63;;;17.00;91.70;;;;;;5071285;28;20061;-34
2024/02/22 05:13:16;;;;;;;0.70;0.57;;;17.00;91.70;;;;;;5071222;28;20021;-35
2024/02/22 05:15:42;;;;;;;1.38;0.70;;;17.00;91.80;;;;;;5070986;28;20028;-35
2024/02/22 05:18:10;;;;;;;0.63;0.43;;;17.00;91.80;;;;;;5070914;28;20024;-35
2024/02/22 05:20:36;;;;;;;0.57;0.45;;;17.00;91.80;;;;;;5070850;28;20106;-35
2024/02/22 05:23:03;;;;;;;1.67;0.60;;;17.00;91.90;;;;;;5071057;28;20024;-35
2024/02/22 05:25:29;;;;;;;0.82;0.45;;;17.00;91.90;;;;;;5070740;28;20435;-34
2024/02/22 05:27:55;;;;;;;0.47;0.40;;;17.00;91.90;;;;;;5070583;28;20047;-34
2024/02/22 05:30:20;;;;;;;1.33;0.60;;;17.00;91.90;;;;;;5071316;28;20028;-35
2024/02/22 05:32:46;;;;;;;1.13;0.52;;;17.00;91.90;;;;;;5070944;28;20036;-36
2024/02/22 05:35:12;;;;;;;0.82;0.40;;;17.00;91.90;;;;;;5071027;28;20044;-37
2024/02/22 05:37:37;;;;;;;1.05;0.60;;;17.00;91.90;;;;;;5071107;28;20101;-37
2024/02/22 05:40:06;;;;;;;0.57;0.32;;;17.00;91.90;;;;;;5070647;28;20501;-37
2024/02/22 05:42:32;;;;;;;0.40;0.40;;;17.00;91.90;;;;;;5070834;28;20383;-37
2024/02/22 05:44:57;;;;;;;1.38;0.68;;;17.00;91.90;;;;;;5070895;28;20024;-36
2024/02/22 05:47:23;;;;;;;1.85;0.63;;;17.00;91.90;;;;;;5070662;28;20024;-35
2024/02/22 05:49:49;;;;;;;1.70;0.60;;;17.00;91.90;;;;;;5070484;28;20024;-36
2024/02/22 05:52:14;;;;;;;0.70;0.50;;;17.10;91.90;;;;;;5069754;28;20386;-35
2024/02/22 05:54:46;;;;;;;0.65;0.43;;;17.00;91.90;;;;;;5070575;28;20111;-35
2024/02/22 05:57:12;;;;;;;1.20;0.68;;;17.00;91.90;;;;;;5070375;28;20092;-36
2024/02/22 05:59:38;;;;;;;1.02;0.50;;;17.00;91.90;;;;;;5070490;28;20566;-35
2024/02/22 06:02:04;;;;;;;0.80;0.50;;;17.00;91.90;;;;;;5070633;28;20017;-35
2024/02/22 06:04:30;;;;;;;0.75;0.55;;;17.00;91.90;;;;;;5071511;28;20372;-37
2024/02/22 06:06:55;;;;;;;0.85;0.50;;;17.00;91.90;;;;;;5070568;28;20363;-36
2024/02/22 06:09:21;;;;;;;1.70;0.40;;;17.00;91.90;;;;;;5070087;28;20028;-35
2024/02/22 06:11:47;;;;;;;1.02;0.60;;;17.00;91.90;;;;;;5074509;28;20028;-35
2024/02/22 06:14:12;;;;;;;0.85;0.40;;;17.00;91.90;;;;;;5074363;28;20028;-35
2024/02/22 06:16:38;;;;;;;2.55;0.70;;;17.00;91.90;;;;;;5074110;28;20482;-36
2024/02/22 06:19:04;;;;;;;0.60;0.50;;;17.00;91.90;;;;;;5074082;28;20489;-36
2024/02/22 06:21:29;;;;;;;0.82;0.60;;;17.00;91.90;;;;;;5074380;28;20029;-34
2024/02/22 06:23:55;;;;;;;0.90;0.52;;;17.00;91.90;;;;;;5074159;28;20024;-37
2024/02/22 06:26:21;;;;;;;0.82;0.52;;;17.00;91.90;;;;;;5074137;28;20029;-37
2024/02/22 06:28:47;;;;;;;1.50;0.70;;;17.00;91.90;;;;;;5073801;28;20497;-35
2024/02/22 06:31:13;;;;;;;1.02;0.40;;;17.00;91.90;;;;;;5073790;28;20056;-35
2024/02/22 06:33:39;;;;;;;1.52;0.63;;;17.00;92.00;;;;;;5073962;28;20103;-34
2024/02/22 06:36:06;;;;;;;1.45;0.70;;;17.00;92.00;;;;;;5073820;28;20103;-35
2024/02/22 06:38:31;;;;;;;0.90;0.60;;;17.00;92.00;;;;;;5073577;28;20127;-34
2024/02/22 06:40:58;;;;;;;0.75;0.40;;;17.00;92.00;;;;;;5073759;28;20150;-34
2024/02/22 06:43:24;;;;;;;1.40;0.52;;;17.00;92.00;;;;;;5074055;28;20025;-36
2024/02/22 06:45:50;;;;;;;0.60;0.43;;;17.00;92.00;;;;;;5073796;28;20035;-34
2024/02/22 06:48:15;;;;;;;0.88;0.50;;;17.00;92.00;;;;;;5073548;28;20025;-34
2024/02/22 06:50:41;;;;;;;0.85;0.50;;;17.00;92.00;;;;;;5073647;28;20103;-35
2024/02/22 06:53:07;;;;;;;0.77;0.60;;;17.00;92.00;;;;;;5073996;28;20032;-34
2024/02/22 06:55:33;;;;;;;1.20;0.60;;;17.00;92.10;;;;;;5073791;28;20037;-34
2024/02/22 06:58:04;;;;;;;0.90;0.57;;;16.90;92.00;;;;;;5073572;28;20027;-36
2024/02/22 07:00:32;;;;;;;0.65;0.60;;;16.90;92.00;;;;;;5074211;28;20028;-34
2024/02/22 07:02:58;;;;;;;0.73;0.50;;;16.90;92.10;;;;;;5074392;28;20515;-34
2024/02/22 07:05:24;;;;;;;1.60;0.70;;;16.90;92.10;;;;;;5073978;28;20060;-34
2024/02/22 07:07:49;;;;;;;1.30;0.65;;;16.90;92.50;;;;;;5073973;28;20112;-35
2024/02/22 07:10:15;;;;;;;0.80;0.50;;;16.80;92.10;;;;;;5074736;28;20030;-36
2024/02/22 07:12:44;;;;;;;1.17;0.45;;;16.90;92.10;;;;;;5074292;28;20059;-37
2024/02/22 07:15:16;;;;;;;0.63;0.40;;;16.80;92.20;;;;;;5076228;28;20029;-35
2024/02/22 07:17:43;;;;;;;0.95;0.60;;;16.80;92.20;;;;;;5073367;28;20021;-34
2024/02/22 07:20:09;;;;;;;0.80;0.40;;;16.80;92.30;;;;;;5073374;28;20029;-34
2024/02/22 07:22:35;;;;;;;1.25;0.60;;;16.80;92.30;;;;;;5072896;28;20035;-35
2024/02/22 07:25:00;;;;;;;1.88;0.88;;;16.70;92.30;;;;;;5074759;28;20024;-35
2024/02/22 07:27:26;;;;;;;2.80;0.70;;;16.70;92.40;;;;;;5072861;28;20040;-34
2024/02/22 07:29:51;;;;;;;1.33;0.40;;;16.70;92.40;;;;;;5073138;28;20025;-34
2024/02/22 07:32:17;;;;;;;0.90;0.70;;;16.70;92.40;;;;;;5072294;28;20035;-34
2024/02/22 07:34:43;;;;;;;0.93;0.52;;;16.60;92.40;;;;;;5073430;28;20048;-34
2024/02/22 07:37:10;;;;;;;1.05;0.60;;;16.60;92.50;;;;;;5072823;28;20103;-34
2024/02/22 07:39:37;;;;;;;1.70;0.57;;;16.60;92.50;;;;;;5072577;28;20110;-34
2024/02/22 07:42:03;;;;;;;1.05;0.57;;;16.60;92.60;;;;;;5073105;28;20202;-36
2024/02/22 07:44:29;;;;;;;1.20;0.70;;;16.60;92.60;;;;;;5072850;28;20104;-35
2024/02/22 07:46:57;;;;;;;1.05;0.70;;;16.50;92.60;;;;;;5072892;28;20109;-37
2024/02/22 07:49:24;;;;;;;1.17;0.68;;;16.50;92.70;;;;;;5073574;28;20028;-37
2024/02/22 07:51:49;;;;;;;1.23;0.77;;;16.50;92.70;;;;;;5072515;28;20028;-35
2024/02/22 07:54:16;;;;;;;1.05;0.75;;;16.50;92.70;;;;;;5073259;28;20078;-36
2024/02/22 07:56:41;;;;;;;1.48;0.80;;;16.50;92.70;;;;;;5074169;28;20029;-36
2024/02/22 07:59:11;;;;;;;2.58;0.80;;;16.50;92.70;;;;;;5073697;28;20432;-38
2024/02/22 08:01:40;;;;;;;1.63;0.85;;;16.50;92.80;;;;;;5072795;28;20078;-36
2024/02/22 08:04:06;;;;;;;1.13;0.65;;;16.50;92.80;;;;;;5072268;28;20029;-38
2024/02/22 08:06:32;;;;;;;1.38;0.90;;;16.50;92.80;;;;;;5073124;28;20687;-35
2024/02/22 08:08:57;;;;;;;1.40;0.70;;;16.50;92.80;;;;;;5072971;28;20078;-36
2024/02/22 08:11:24;;;;;;;1.00;0.75;;;16.50;92.80;;;;;;5073689;28;20033;-36
2024/02/22 08:13:50;;;;;;;1.25;0.93;;;16.50;92.80;;;;;;5071052;28;20490;-36
2024/02/22 08:16:16;;;;;;;1.25;0.88;;;16.50;92.80;;;;;;5070990;28;20029;-35
2024/02/22 08:18:41;;;;;;;1.83;0.73;;;16.50;92.90;;;;;;5071817;28;20028;-35
2024/02/22 08:21:07;;;;;;;1.25;0.80;;;16.40;92.80;;;;;;5071795;28;20546;-35
2024/02/22 08:23:33;;;;;;;1.55;0.85;;;16.50;92.90;;;;;;5071920;28;20043;-35
2024/02/22 08:25:59;;;;;;;2.28;1.15;;;16.40;92.80;;;;;;5071814;28;20020;-36
2024/02/22 08:28:26;;;;;;;1.30;0.98;;;16.40;92.80;;;;;;5070847;28;20063;-36
2024/02/22 08:30:52;;;;;;;2.17;1.10;;;16.50;92.90;;;;;;5069714;28;20166;-35
2024/02/22 08:33:19;;;;;;;4.30;1.92;;;16.50;92.90;;;;;;5071575;28;20107;-34
2024/02/22 08:35:45;;;;;;;3.00;1.77;;;16.50;93.00;;;;;;5072116;28;20437;-34
2024/02/22 08:38:12;;;;;;;3.60;1.67;;;16.50;93.20;;;;;;5071659;28;20475;-36
2024/02/22 08:40:39;;;;;;;5.22;2.00;;;16.50;93.40;;;;;;5071389;28;20023;-36
2024/02/22 08:43:04;;;;;;;4.53;2.13;;;16.50;93.40;;;;;;5071639;28;20016;-34
2024/02/22 08:45:33;;;;;;;4.55;2.00;;;16.50;93.50;;;;;;5071346;28;20453;-37
2024/02/22 08:47:59;;;;;;;2.63;1.90;;;16.50;93.50;;;;;;5071204;28;20029;-34
2024/02/22 08:50:25;;;;;;;3.85;2.13;;;16.50;93.50;;;;;;5071433;28;20032;-35
2024/02/22 08:52:50;;;;;;;2.97;1.80;;;16.50;93.50;;;;;;5071304;28;20051;-37
2024/02/22 08:55:17;;;;;;;4.40;1.80;;;16.50;93.50;;;;;;5071350;28;20047;-37
2024/02/22 08:57:43;;;;;;;2.75;1.55;;;16.50;93.50;;;;;;5071111;28;20028;-37
2024/02/22 09:00:10;;;;;;;4.50;1.88;;;16.50;93.50;;;;;;5070991;28;20055;-34
2024/02/22 09:02:39;;;;;;;2.60;1.70;;;16.50;93.40;;;;;;5072978;28;20063;-34
2024/02/22 09:05:06;;;;;;;3.05;1.80;;;16.50;93.40;;;;;;5071140;28;20432;-35
2024/02/22 09:07:34;;;;;;;2.03;1.30;;;16.60;93.50;;;;;;5071686;28;20052;-35
2024/02/22 09:10:00;;;;;;;2.05;1.50;;;16.50;93.40;;;;;;5071448;28;20028;-36
2024/02/22 09:12:26;;;;;;;2.38;1.50;;;16.60;93.40;;;;;;5071413;28;20021;-34
2024/02/22 09:14:52;;;;;;;3.25;2.08;;;16.60;93.40;;;;;;5072922;28;20070;-35
2024/02/22 09:17:17;;;;;;;2.85;1.58;;;16.60;93.30;;;;;;5072073;28;20107;-35
2024/02/22 09:19:43;;;;;;;3.17;1.80;;;16.60;93.30;;;;;;5071466;28;20060;-34
2024/02/22 09:22:12;;;;;;;4.30;1.73;;;16.60;93.30;;;;;;5071100;28;20025;-36
2024/02/22 09:24:43;;;;;;;3.50;1.45;;;16.60;93.30;;;;;;5070971;28;20073;-35
2024/02/22 09:27:09;;;;;;;2.88;1.48;;;16.60;93.30;;;;;;5071479;28;20043;-34
2024/02/22 09:29:38;;;;;;;2.60;1.70;;;16.70;93.30;;;;;;5071371;28;20040;-35
2024/02/22 09:32:06;;;;;;;2.50;1.33;;;16.60;93.20;;;;;;5071560;28;20401;-35
2024/02/22 09:34:33;;;;;;;2.45;1.58;;;16.70;93.20;;;;;;5072461;28;20031;-34
2024/02/22 09:37:01;;;;;;;2.65;1.38;;;16.70;93.20;;;;;;5072636;28;20024;-35
2024/02/22 09:39:27;;;;;;;2.22;1.40;;;16.70;93.20;;;;;;5073422;28;20037;-35
2024/02/22 09:41:54;;;;;;;2.65;1.20;;;16.70;93.20;;;;;;5072064;28;20078;-37
2024/02/22 09:44:21;;;;;;;1.27;0.95;;;16.70;93.20;;;;;;5072329;28;20021;-35
2024/02/22 09:46:49;;;;;;;2.63;1.40;;;16.70;93.20;;;;;;5075162;28;20082;-34
2024/02/22 09:49:16;;;;;;;3.92;1.40;;;16.70;93.20;;;;;;5081266;28;20521;-34
2024/02/22 09:51:42;;;;;;;2.30;1.23;;;16.70;93.10;;;;;;5078030;28;20032;-35
2024/02/22 09:54:08;;;;;;;2.40;1.30;;;16.70;93.10;;;;;;5074903;28;20036;-37
2024/02/22 09:56:34;;;;;;;2.17;1.30;;;16.70;93.10;;;;;;5075319;28;20074;-34
2024/02/22 09:59:00;;;;;;;2.33;1.40;;;16.80;93.20;;;;;;5074355;28;20020;-35
2024/02/22 10:01:25;;;;;;;2.17;1.15;;;16.80;93.20;;;;;;5074732;28;20035;-37
2024/02/22 10:03:51;;;;;;;1.50;1.10;;;16.80;93.10;;;;;;5074665;28;20067;-35
2024/02/22 10:06:18;;;;;;;2.00;1.10;;;16.80;93.20;;;;;;5074448;28;20371;-36
2024/02/22 10:08:44;;;;;;;1.40;1.00;;;16.80;93.10;;;;;;5074668;28;20029;-34
2024/02/22 10:11:11;;;;;;;1.85;1.30;;;16.80;93.10;;;;;;5074244;28;20020;-34
2024/02/22 10:13:37;;;;;;;2.58;1.10;;;16.80;93.10;;;;;;5074400;28;20087;-34
2024/02/22 10:16:14;;;;;;;1.48;1.00;;;16.90;93.10;;;;;;5074326;28;20021;-34
2024/02/22 10:18:41;;;;;;;1.50;1.00;;;16.90;93.10;;;;;;5073991;28;20435;-34
2024/02/22 10:21:17;;;;;;;1.85;1.30;;;16.90;93.00;;;;;;5073984;28;20033;-34
2024/02/22 10:23:46;;;;;;;1.58;1.17;;;16.90;93.00;;;;;;5074409;28;20017;-34
2024/02/22 10:26:17;;;;;;;1.25;0.80;;;16.90;93.00;;;;;;5074014;28;20048;-34
2024/02/22 10:28:51;;;;;;;1.92;0.98;;;17.00;93.00;;;;;;5073790;28;20031;-34
2024/02/22 10:31:19;;;;;;;1.42;1.00;;;17.00;93.00;;;;;;5074557;28;20043;-34
2024/02/22 10:33:45;;;;;;;2.30;1.20;;;17.00;93.00;;;;;;5072791;28;20024;-34
2024/02/22 10:36:11;;;;;;;3.67;1.38;;;17.00;92.90;;;;;;5074030;28;20036;-33
2024/02/22 10:38:38;;;;;;;1.90;1.20;;;17.00;92.90;;;;;;5073829;28;20036;-35
2024/02/22 10:41:04;;;;;;;2.47;1.10;;;17.00;92.90;;;;;;5073792;28;20058;-34
2024/02/22 10:43:30;;;;;;;1.65;0.95;;;17.10;92.90;;;;;;5073885;28;20028;-44
2024/02/22 10:46:02;;;;;;;1.30;0.90;;;17.10;92.90;;;;;;5074071;28;20028;-44
2024/02/22 10:48:33;;;;;;;3.42;1.10;;;17.10;92.80;;;;;;5073453;28;20036;-44
2024/02/22 10:51:03;;;;;;;1.60;1.10;;;17.10;92.80;;;;;;5073498;28;20157;-44
2024/02/22 10:53:34;;;;;;;1.20;0.80;;;17.10;92.80;;;;;;5073674;28;20024;-44
2024/02/22 10:56:01;;;;;;;1.35;1.00;;;17.10;92.80;;;;;;5072890;28;20049;-44
2024/02/22 10:58:28;;;;;;;3.95;1.02;;;17.10;92.70;;;;;;5073349;28;20012;-44
2024/02/22 11:00:55;;;;;;;1.60;1.00;;;17.10;92.70;;;;;;5073508;28;20029;-44
2024/02/22 11:03:25;;;;;;;1.10;0.80;;;17.20;92.80;;;;;;5073486;28;20029;-44
2024/02/22 11:05:53;;;;;;;1.33;0.95;;;17.10;92.70;;;;;;5073562;28;20028;-44
2024/02/22 11:08:20;;;;;;;3.40;1.40;;;17.20;92.70;;;;;;5073067;28;20502;-44
2024/02/22 11:10:59;;;;;;;1.83;1.13;;;17.20;92.70;;;;;;5073066;28;20036;-44
2024/02/22 11:13:24;;;;;;;1.88;1.15;;;17.20;92.70;;;;;;5073427;28;20446;-44
2024/02/22 11:15:50;;;;;;;2.45;1.27;;;17.20;92.70;;;;;;5074668;28;20067;-44
2024/02/22 11:18:25;;;;;;;2.75;1.20;;;17.20;92.70;;;;;;5073016;28;20064;-44
2024/02/22 11:20:51;;;;;;;1.75;0.90;;;17.20;92.70;;;;;;5073041;28;20056;-43
2024/02/22 11:23:22;;;;;;;2.72;1.05;;;17.20;92.70;;;;;;5073055;28;20056;-45
2024/02/22 11:25:48;;;;;;;1.17;0.80;;;17.20;92.70;;;;;;5072989;28;20027;-44
2024/02/22 11:28:15;;;;;;;1.35;0.82;;;17.20;93.10;;;;;;5072656;28;20029;-43
2024/02/22 11:30:43;;;;;;;0.80;0.60;;;17.20;93.30;;;;;;5072785;28;20051;-44
2024/02/22 11:33:10;;;;;;;0.98;0.68;;;17.20;93.40;;;;;;5072971;28;20020;-45
2024/02/22 11:35:36;;;;;;;1.40;0.60;;;17.20;93.40;;;;;;5072711;28;20017;-45
2024/02/22 11:38:04;;;;;;;0.80;0.50;;;17.20;93.40;;;;;;5072498;28;20035;-44
2024/02/22 11:40:39;;;;;;;1.20;0.50;;;17.20;93.50;;;;;;5072760;28;20029;-45
2024/02/22 11:43:05;;;;;;;1.80;0.60;;;17.20;93.50;;;;;;5072749;28;20509;-44
2024/02/22 11:45:32;;;;;;;0.88;0.55;;;17.20;93.40;;;;;;5072493;28;20028;-42
2024/02/22 11:47:58;;;;;;;0.70;0.50;;;17.20;93.40;;;;;;5072349;28;20449;-43
2024/02/22 11:50:27;;;;;;;1.50;0.60;;;17.30;93.40;;;;;;5072766;28;20017;-45
2024/02/22 11:52:55;;;;;;;1.95;0.60;;;17.30;93.40;;;;;;5072608;28;20021;-45
2024/02/22 11:55:20;;;;;;;2.80;0.70;;;17.30;93.40;;;;;;5072601;28;20013;-42
2024/02/22 11:57:46;;;;;;;0.88;0.60;;;17.30;93.40;;;;;;5072268;28;20036;-43
2024/02/22 12:00:12;;;;;;;1.35;0.50;;;17.30;93.40;;;;;;5072150;28;20501;-44
2024/02/22 12:02:38;;;;;;;0.73;0.43;;;17.30;93.40;;;;;;5072381;28;20020;-44
2024/02/22 12:05:07;;;;;;;1.02;0.65;;;17.40;93.40;;;;;;5072379;28;20424;-43
2024/02/22 12:07:33;;;;;;;0.75;0.50;;;17.40;93.50;;;;;;5071005;28;20497;-45
2024/02/22 12:09:59;;;;;;;0.88;0.52;;;17.40;93.50;;;;;;5072192;28;20078;-44
2024/02/22 12:12:25;;;;;;;0.85;0.45;;;17.40;93.50;;;;;;5072080;28;20079;-45
2024/02/22 12:14:58;;;;;;;0.57;0.43;;;17.40;93.50;;;;;;5072024;28;20104;-45
2024/02/22 12:17:27;;;;;;;0.75;0.43;;;17.40;93.50;;;;;;5071758;28;20488;-42
2024/02/22 12:19:54;;;;;;;0.82;0.30;;;17.40;93.50;;;;;;5071636;28;20027;-45
2024/02/22 12:22:20;;;;;;;0.95;0.20;;;17.40;93.70;;;;;;5071982;28;20020;-43
2024/02/22 12:24:47;;;;;;;1.38;0.35;;;17.50;94.20;;;;;;5071935;28;20139;-44
2024/02/22 12:27:13;;;;;;;0.73;0.20;;;17.40;94.30;;;;;;5071553;28;20036;-44
2024/02/22 12:29:39;;;;;;;0.73;0.40;;;17.40;94.00;;;;;;5071619;28;20036;-44
2024/02/22 12:32:06;;;;;;;0.57;0.30;;;17.40;94.00;;;;;;5071714;28;20482;-45
2024/02/22 12:34:32;;;;;;;0.57;0.22;;;17.40;94.00;;;;;;5071676;28;20089;-45
2024/02/22 12:36:58;;;;;;;0.40;0.30;;;17.40;94.00;;;;;;5071515;28;20021;-42
2024/02/22 12:39:25;;;;;;;0.50;0.20;;;17.40;94.00;;;;;;5071445;28;20064;-43
2024/02/22 12:41:51;;;;;;;0.40;0.20;;;17.40;93.90;;;;;;5071668;28;20024;-44
2024/02/22 12:44:16;;;;;;;0.60;0.30;;;17.40;93.90;;;;;;5071639;28;20494;-44